createdAt,value
2022-11-04T00:00:29.860Z,11.53
2022-11-04T00:07:01.829Z,10.43
2022-11-04T00:10:08.759Z,12.70
2022-11-04T00:13:13.833Z,8.20
2022-11-04T00:16:37.839Z,18.97
2022-11-04T00:20:02.443Z,12.00
2022-11-04T00:23:26.497Z,6.77
2022-11-04T00:26:50.196Z,8.43
2022-11-04T00:29:56.565Z,11.43
2022-11-04T00:33:19.959Z,11.47
2022-11-04T00:36:27.917Z,16.60
2022-11-04T00:39:34.190Z,43.50
2022-11-04T00:42:40.208Z,22.93
2022-11-04T00:45:46.501Z,8.77
2022-11-04T00:48:52.847Z,17.10
2022-11-04T00:52:00.334Z,7.30
2022-11-04T00:55:07.861Z,7.33
2022-11-04T00:58:13.881Z,4.63
2022-11-04T01:01:21.014Z,6.67
2022-11-04T01:04:27.301Z,7.17
2022-11-04T01:07:37.402Z,11.83
2022-11-04T01:10:47.454Z,7.23
2022-11-04T01:13:53.792Z,7.13
2022-11-04T01:16:59.774Z,6.67
2022-11-04T01:20:06.686Z,8.10
2022-11-04T01:23:14.385Z,7.00
2022-11-04T01:26:23.024Z,5.97
2022-11-04T01:29:29.425Z,8.23
2022-11-04T01:32:36.089Z,10.03
2022-11-04T01:35:42.266Z,10.87
2022-11-04T01:38:50.370Z,10.93
2022-11-04T01:41:56.760Z,12.57
2022-11-04T01:45:03.405Z,13.10
2022-11-04T01:48:19.106Z,12.03
2022-11-04T01:51:25.470Z,9.67
2022-11-04T01:54:34.050Z,7.37
2022-11-04T01:57:43.242Z,12.27
2022-11-04T02:00:50.046Z,9.00
2022-11-04T02:04:20.142Z,8.00
2022-11-04T02:07:26.592Z,8.63
2022-11-04T02:10:34.723Z,7.83
2022-11-04T02:13:39.593Z,10.50
2022-11-04T02:16:49.666Z,12.47
2022-11-04T02:20:10.421Z,14.03
2022-11-04T02:23:34.537Z,11.50
2022-11-04T02:27:18.505Z,12.87
2022-11-04T02:30:27.396Z,17.23
2022-11-04T02:33:39.773Z,16.00
2022-11-04T02:36:53.962Z,18.17
2022-11-04T02:40:11.009Z,16.53
2022-11-04T02:43:25.519Z,11.70
2022-11-04T02:46:37.182Z,14.37
2022-11-04T02:49:52.404Z,15.77
2022-11-04T02:53:02.944Z,13.23
2022-11-04T02:56:11.987Z,11.73
2022-11-04T02:59:22.349Z,14.20
2022-11-04T03:02:35.914Z,13.40
2022-11-04T03:05:45.965Z,12.00
2022-11-04T03:08:54.817Z,9.07
2022-11-04T03:12:04.980Z,17.67
2022-11-04T03:15:15.799Z,13.27
2022-11-04T03:18:32.043Z,9.20
2022-11-04T03:21:43.206Z,27.00
2022-11-04T03:24:50.877Z,14.03
2022-11-04T03:28:04.442Z,13.40
2022-11-04T03:31:14.363Z,10.37
2022-11-04T03:34:21.906Z,13.87
2022-11-04T03:37:28.230Z,13.40
2022-11-04T03:40:34.927Z,11.83
2022-11-04T03:43:43.127Z,14.13
2022-11-04T03:46:49.764Z,17.97
2022-11-04T03:50:06.514Z,13.83
2022-11-04T03:53:15.365Z,16.40
2022-11-04T03:57:03.639Z,18.13
2022-11-04T04:00:13.932Z,16.73
2022-11-04T04:03:26.133Z,13.03
2022-11-04T04:06:36.842Z,72.43
2022-11-04T04:09:47.434Z,23.47
2022-11-04T04:12:57.483Z,22.17
2022-11-04T04:16:08.885Z,16.20
2022-11-04T04:19:18.409Z,14.03
2022-11-04T04:22:30.960Z,38.57
2022-11-04T04:26:05.864Z,24.37
2022-11-04T04:29:12.923Z,57.30
2022-11-04T04:32:21.730Z,32.33
2022-11-04T04:35:45.170Z,32.07
2022-11-04T04:39:10.169Z,28.37
2022-11-04T04:42:33.706Z,32.33
2022-11-04T04:45:43.619Z,22.10
2022-11-04T04:48:49.869Z,27.43
2022-11-04T04:51:55.832Z,17.60
2022-11-04T04:55:03.035Z,22.70
2022-11-04T04:58:10.705Z,17.70
2022-11-04T05:01:16.756Z,23.67
2022-11-04T05:04:23.169Z,19.37
2022-11-04T05:07:29.296Z,32.50
2022-11-04T05:10:36.937Z,26.80
2022-11-04T05:13:43.041Z,33.70
2022-11-04T05:16:49.093Z,36.07
2022-11-04T05:19:55.486Z,37.53
2022-11-04T05:23:01.774Z,26.00
2022-11-04T05:26:09.781Z,18.33
2022-11-04T05:32:26.799Z,36.73
2022-11-04T05:35:33.323Z,42.37
2022-11-04T05:38:39.720Z,30.47
2022-11-04T05:41:47.192Z,30.53
2022-11-04T05:44:53.265Z,18.63
2022-11-04T05:48:00.606Z,28.03
2022-11-04T05:51:07.076Z,32.83
2022-11-04T05:54:13.358Z,24.30
2022-11-04T05:57:20.957Z,15.70
2022-11-04T06:00:27.783Z,24.30
2022-11-04T06:03:34.140Z,24.20
2022-11-04T06:06:40.106Z,23.43
2022-11-04T06:09:46.020Z,15.67
2022-11-04T06:12:53.348Z,24.50
2022-11-04T06:15:59.275Z,19.77
2022-11-04T06:19:08.557Z,37.63
2022-11-04T06:22:17.470Z,32.73
2022-11-04T06:25:23.205Z,54.63
2022-11-04T06:28:30.773Z,57.20
2022-11-04T06:31:37.099Z,34.27
2022-11-04T06:34:43.796Z,20.90
2022-11-04T06:37:50.101Z,19.10
2022-11-04T06:40:56.054Z,31.37
2022-11-04T06:44:03.943Z,18.87
2022-11-04T06:47:11.312Z,22.27
2022-11-04T06:50:17.161Z,21.90
2022-11-04T06:53:23.362Z,21.63
2022-11-04T06:56:29.577Z,18.03
2022-11-04T06:59:37.254Z,22.30
2022-11-04T07:02:43.824Z,19.77
2022-11-04T07:05:50.157Z,30.30
2022-11-04T07:08:59.669Z,35.50
2022-11-04T07:12:06.257Z,30.43
2022-11-04T07:15:14.349Z,27.57
2022-11-04T07:18:20.374Z,23.53
2022-11-04T07:21:27.038Z,29.57
2022-11-04T07:24:33.397Z,15.30
2022-11-04T07:27:39.693Z,17.97
2022-11-04T07:30:47.226Z,31.03
2022-11-04T07:33:53.553Z,29.37
2022-11-04T07:36:59.438Z,27.53
2022-11-04T07:40:06.285Z,32.93
2022-11-04T07:43:12.521Z,13.10
2022-11-04T07:46:20.986Z,15.23
2022-11-04T07:49:27.622Z,13.70
2022-11-04T07:52:33.886Z,19.47
2022-11-04T07:55:43.370Z,29.50
2022-11-04T07:58:49.845Z,17.37
2022-11-04T08:01:57.570Z,15.30
2022-11-04T08:05:03.761Z,16.17
2022-11-04T08:08:10.053Z,19.00
2022-11-04T08:11:18.994Z,20.00
2022-11-04T08:14:25.569Z,19.87
2022-11-04T08:17:33.081Z,16.93
2022-11-04T08:20:39.603Z,14.97
2022-11-04T08:23:46.277Z,14.50
2022-11-04T08:26:52.498Z,14.33
2022-11-04T08:29:58.930Z,16.17
2022-11-04T08:33:06.844Z,7.73
2022-11-04T08:36:16.211Z,9.97
2022-11-04T08:39:22.293Z,12.90
2022-11-04T08:42:28.365Z,12.40
2022-11-04T08:45:34.428Z,11.00
2022-11-04T08:48:42.744Z,8.47
2022-11-04T08:51:49.811Z,16.13
2022-11-04T08:54:57.500Z,13.83
2022-11-04T08:58:04.544Z,10.17
2022-11-04T09:01:12.868Z,6.27
2022-11-04T09:04:20.950Z,9.00
2022-11-04T09:07:27.049Z,11.17
2022-11-04T09:10:33.105Z,12.43
2022-11-04T09:13:40.154Z,11.00
2022-11-04T09:16:46.249Z,7.87
2022-11-04T09:19:53.533Z,12.87
2022-11-04T09:22:59.965Z,7.10
2022-11-04T09:26:08.802Z,11.53
2022-11-04T09:29:15.205Z,13.03
2022-11-04T09:32:21.217Z,14.53
2022-11-04T09:35:28.828Z,9.33
2022-11-04T09:38:34.768Z,10.87
2022-11-04T09:42:12.254Z,8.73
2022-11-04T09:45:21.876Z,11.63
2022-11-04T09:48:33.319Z,16.10
2022-11-04T09:51:57.715Z,13.23
2022-11-04T09:55:12.681Z,13.03
2022-11-04T09:58:19.223Z,14.13
2022-11-04T10:01:32.442Z,11.97
2022-11-04T10:04:50.304Z,10.43
2022-11-04T10:08:19.030Z,11.17
2022-11-04T10:11:31.659Z,9.47
2022-11-04T10:15:09.054Z,19.23
2022-11-04T10:18:29.125Z,19.53
2022-11-04T10:21:47.196Z,11.20
2022-11-04T10:25:04.398Z,7.70
2022-11-04T10:28:15.156Z,12.90
2022-11-04T10:31:21.581Z,10.23
2022-11-04T10:34:33.900Z,14.20
2022-11-04T10:37:40.276Z,13.63
2022-11-04T10:40:51.108Z,14.67
2022-11-04T10:44:01.137Z,21.10
2022-11-04T10:47:19.609Z,18.70
2022-11-04T10:50:38.775Z,8.67
2022-11-04T10:53:45.333Z,8.23
2022-11-04T10:56:55.037Z,7.80
2022-11-04T11:00:02.894Z,12.97
2022-11-04T11:03:32.062Z,8.40
2022-11-04T11:06:38.946Z,9.53
2022-11-04T11:09:54.543Z,13.53
2022-11-04T11:13:04.836Z,9.87
2022-11-04T11:16:14.330Z,10.03
2022-11-04T11:19:23.158Z,11.93
2022-11-04T11:22:32.858Z,9.33
2022-11-04T11:25:45.385Z,12.63
2022-11-04T11:28:59.109Z,10.10
2022-11-04T11:32:05.706Z,9.87
2022-11-04T11:35:18.158Z,12.07
2022-11-04T11:38:27.652Z,19.43
2022-11-04T11:41:41.076Z,7.73
2022-11-04T11:44:54.454Z,9.73
2022-11-04T11:48:00.681Z,5.83
2022-11-04T11:51:21.899Z,6.50
2022-11-04T11:54:34.641Z,9.67
2022-11-04T12:01:27.765Z,9.93
2022-11-04T12:11:56.326Z,9.40
2022-11-04T12:15:20.019Z,12.27
2022-11-04T12:18:44.114Z,6.37
2022-11-04T12:22:00.671Z,12.00
2022-11-04T12:25:19.046Z,9.37
2022-11-04T12:28:32.286Z,6.80
2022-11-04T12:31:48.503Z,9.37
2022-11-04T12:35:12.206Z,10.27
2022-11-04T12:38:32.717Z,15.27
2022-11-04T12:42:19.514Z,9.23
2022-11-04T12:45:31.438Z,12.23
2022-11-04T12:49:08.899Z,7.50
2022-11-04T12:52:32.034Z,7.23
2022-11-04T12:55:49.216Z,13.13
2022-11-04T12:59:33.501Z,5.33
2022-11-04T13:02:46.207Z,15.53
2022-11-04T13:05:55.135Z,11.20
2022-11-04T13:09:07.125Z,9.70
2022-11-04T13:12:17.557Z,7.87
2022-11-04T13:15:28.665Z,11.27
2022-11-04T13:18:38.683Z,4.73
2022-11-04T13:21:44.955Z,5.63
2022-11-04T13:24:56.925Z,5.13
2022-11-04T13:28:04.583Z,6.23
2022-11-04T13:31:16.771Z,7.93
2022-11-04T13:34:34.689Z,6.40
2022-11-04T13:37:49.149Z,6.67
2022-11-04T13:41:16.132Z,10.13
2022-11-04T13:44:28.134Z,10.53
2022-11-04T13:47:38.758Z,9.83
2022-11-04T13:50:44.610Z,10.57
2022-11-04T13:53:55.182Z,6.53
2022-11-04T13:57:16.319Z,8.10
2022-11-04T14:00:25.686Z,8.97
2022-11-04T14:03:52.958Z,8.10
2022-11-04T14:07:01.875Z,16.17
2022-11-04T14:10:40.362Z,14.43
2022-11-04T14:14:20.818Z,10.47
2022-11-04T14:17:58.782Z,8.13
2022-11-04T14:21:10.402Z,27.17
2022-11-04T14:24:20.340Z,20.87
2022-11-04T14:27:34.218Z,26.37
2022-11-04T14:30:49.908Z,26.03
2022-11-04T14:33:58.008Z,30.17
2022-11-04T14:37:09.871Z,22.67
2022-11-04T14:40:27.093Z,22.73
2022-11-04T14:43:36.127Z,26.37
2022-11-04T14:46:46.670Z,22.57
2022-11-04T14:50:01.359Z,25.57
2022-11-04T14:53:14.631Z,31.43
2022-11-04T14:56:24.728Z,22.23
2022-11-04T14:59:31.560Z,28.80
2022-11-04T15:02:39.308Z,55.63
2022-11-04T15:05:50.881Z,41.33
2022-11-04T15:08:57.780Z,102.17
2022-11-04T15:12:30.438Z,62.67
2022-11-04T15:15:40.151Z,496.97
2022-11-04T15:18:48.307Z,149.20
2022-11-04T15:21:54.610Z,74.33
2022-11-04T15:25:06.013Z,146.43
2022-11-04T15:28:19.771Z,165.17
2022-11-04T15:31:27.886Z,191.40
2022-11-04T15:34:37.494Z,356.03
2022-11-04T15:37:45.186Z,314.20
2022-11-04T15:40:52.536Z,380.17
2022-11-04T15:43:58.197Z,356.33
2022-11-04T15:47:21.636Z,315.73
2022-11-04T15:50:32.045Z,198.00
2022-11-04T15:53:48.636Z,204.47
2022-11-04T15:56:56.378Z,150.10
2022-11-04T16:00:07.266Z,152.87
2022-11-04T16:03:20.675Z,71.57
2022-11-04T16:06:39.566Z,101.17
2022-11-04T16:09:48.501Z,53.57
2022-11-04T16:12:57.917Z,37.77
2022-11-04T16:16:15.407Z,55.10
2022-11-04T16:19:23.790Z,51.47
2022-11-04T16:22:33.459Z,61.27
2022-11-04T16:25:40.216Z,235.40
2022-11-04T16:28:46.739Z,85.87
2022-11-04T16:32:15.967Z,67.73
2022-11-04T16:35:24.068Z,95.87
2022-11-04T16:38:32.126Z,93.90
2022-11-04T16:41:40.561Z,87.57
2022-11-04T16:44:52.033Z,184.53
2022-11-04T16:47:58.928Z,104.50
2022-11-04T16:51:05.570Z,108.53
2022-11-04T16:54:13.052Z,119.67
2022-11-04T16:57:19.458Z,118.40
2022-11-04T17:00:28.159Z,134.03
2022-11-04T17:03:34.139Z,86.40
2022-11-04T17:06:40.631Z,73.87
2022-11-04T17:09:48.478Z,91.60
2022-11-04T17:12:55.031Z,109.70
2022-11-04T17:16:01.801Z,169.23
2022-11-04T17:19:12.188Z,105.00
2022-11-04T17:22:18.571Z,93.13
2022-11-04T17:25:28.047Z,87.27
2022-11-04T17:28:34.064Z,90.70
2022-11-04T17:31:40.191Z,150.67
2022-11-04T17:34:47.085Z,192.83
2022-11-04T17:37:54.188Z,150.77
2022-11-04T17:41:33.795Z,166.27
2022-11-04T17:44:40.139Z,162.23
2022-11-04T17:47:46.131Z,200.47
2022-11-04T17:50:52.254Z,152.50
2022-11-04T17:53:58.742Z,140.17
2022-11-04T17:57:07.447Z,144.20
2022-11-04T18:00:15.765Z,123.83
2022-11-04T18:03:21.684Z,118.73
2022-11-04T18:06:31.568Z,129.67
2022-11-04T18:09:39.355Z,122.83
2022-11-04T18:12:46.996Z,102.37
2022-11-04T18:15:53.049Z,105.03
2022-11-04T18:19:00.105Z,94.93
2022-11-04T18:22:06.277Z,110.93
2022-11-04T18:25:13.791Z,172.13
2022-11-04T18:28:21.624Z,234.60
2022-11-04T18:31:29.954Z,169.57
2022-11-04T18:34:36.281Z,152.13
2022-11-04T18:37:46.976Z,119.83
2022-11-04T18:40:55.270Z,115.00
2022-11-04T18:44:02.921Z,77.70
2022-11-04T18:47:09.374Z,61.63
2022-11-04T18:50:15.630Z,69.07
2022-11-04T18:53:26.852Z,61.73
2022-11-04T18:56:33.430Z,56.53
2022-11-04T18:59:41.260Z,69.90
2022-11-04T19:02:47.510Z,46.63
2022-11-04T19:05:54.105Z,30.77
2022-11-04T19:09:13.315Z,40.13
2022-11-04T19:12:46.485Z,84.63
2022-11-04T19:15:54.250Z,55.33
2022-11-04T19:19:01.839Z,188.30
2022-11-04T19:22:08.249Z,109.17
2022-11-04T19:25:14.632Z,81.67
2022-11-04T19:28:37.289Z,52.60
2022-11-04T19:31:48.911Z,30.30
2022-11-04T19:34:55.081Z,21.73
2022-11-04T19:38:01.944Z,29.33
2022-11-04T19:41:30.451Z,38.53
2022-11-04T19:44:35.778Z,46.13
2022-11-04T19:47:43.344Z,27.87
2022-11-04T19:50:50.712Z,24.90
2022-11-04T19:53:57.452Z,24.73
2022-11-04T19:57:03.555Z,30.70
2022-11-04T20:00:12.083Z,41.50
2022-11-04T20:03:19.608Z,50.53
2022-11-04T20:06:25.501Z,40.27
2022-11-04T20:09:31.507Z,49.47
2022-11-04T20:12:55.329Z,47.97
2022-11-04T20:16:01.248Z,39.53
2022-11-04T20:19:10.549Z,52.03
2022-11-04T20:22:17.278Z,61.77
2022-11-04T20:25:23.538Z,84.53
2022-11-04T20:28:32.515Z,80.00
2022-11-04T20:31:39.460Z,43.67
2022-11-04T20:34:49.343Z,39.83
2022-11-04T20:37:57.460Z,32.33
2022-11-04T20:41:07.533Z,34.03
2022-11-04T20:44:15.436Z,34.47
2022-11-04T20:47:22.335Z,27.73
2022-11-04T20:50:29.598Z,31.23
2022-11-04T20:53:36.567Z,32.57
2022-11-04T20:56:44.240Z,29.07
2022-11-04T20:59:50.621Z,30.63
2022-11-04T21:02:56.577Z,31.93
2022-11-04T21:06:04.093Z,22.50
2022-11-04T21:09:12.841Z,25.87
2022-11-04T21:12:19.438Z,23.33
2022-11-04T21:15:44.439Z,24.93
2022-11-04T21:18:50.444Z,24.80
2022-11-04T21:21:58.090Z,42.53
2022-11-04T21:25:04.767Z,50.33
2022-11-04T21:28:11.668Z,49.13
2022-11-04T21:31:18.114Z,47.40
2022-11-04T21:34:24.612Z,33.47
2022-11-04T21:37:36.781Z,30.90
2022-11-04T21:40:44.366Z,22.57
2022-11-04T21:43:55.359Z,15.13
2022-11-04T21:47:01.522Z,22.03
2022-11-04T21:50:11.385Z,15.63
2022-11-04T21:53:21.690Z,21.97
2022-11-04T21:56:29.723Z,32.93
2022-11-04T21:59:36.317Z,30.83
2022-11-04T22:02:43.889Z,26.40
2022-11-04T22:05:58.357Z,21.43
2022-11-04T22:09:06.636Z,16.10
2022-11-04T22:12:12.570Z,17.30
2022-11-04T22:15:39.611Z,20.53
2022-11-04T22:18:46.928Z,16.73
2022-11-04T22:21:52.926Z,17.03
2022-11-04T22:25:04.256Z,18.83
2022-11-04T22:28:10.641Z,21.43
2022-11-04T22:31:19.238Z,22.60
2022-11-04T22:34:26.439Z,21.10
2022-11-04T22:37:32.633Z,19.50
2022-11-04T22:40:40.550Z,11.77
2022-11-04T22:43:46.683Z,19.17
2022-11-04T22:46:52.864Z,23.50
2022-11-04T22:49:58.886Z,31.70
2022-11-04T22:53:05.108Z,23.03
2022-11-04T22:56:14.949Z,15.57
2022-11-04T22:59:21.239Z,14.37
2022-11-04T23:02:29.983Z,23.27
2022-11-04T23:05:38.521Z,13.37
2022-11-04T23:08:45.182Z,16.43
2022-11-04T23:12:09.739Z,17.63
2022-11-04T23:15:33.252Z,17.07
2022-11-04T23:18:45.253Z,25.67
2022-11-04T23:22:08.885Z,39.63
2022-11-04T23:25:15.410Z,22.97
2022-11-04T23:28:40.488Z,13.10
2022-11-04T23:31:46.444Z,18.50
2022-11-04T23:35:10.180Z,19.07
2022-11-04T23:38:16.229Z,16.60
2022-11-04T23:41:39.713Z,14.80
2022-11-04T23:45:06.691Z,18.10
2022-11-04T23:48:30.528Z,22.80
2022-11-04T23:51:54.146Z,11.87
2022-11-04T23:55:17.916Z,15.13
2022-11-04T23:58:41.705Z,14.67
